Time;durP1;ratioP1;P1;durP2;ratioP2;P2;SDS_P1;SDS_P2;PMS_P1;PMS_P2;Temp;Humidity;BMP_temperature;BMP_pressure;BME280_temperature;BME280_humidity;BME280_pressure;Samples;Min_cycle;Max_cycle;Signal;HPM_P1;HPM_P2
2022/08/03 00:01:51;;;;;;;3.05;1.10;;;20.50;99.90;;;;;;4265474;27;20402;-82
2022/08/03 00:03:51;;;;;;;7.20;1.30;;;20.50;99.90;;;;;;4246964;27;20082;-83
2022/08/03 00:05:52;;;;;;;4.07;1.15;;;20.40;99.90;;;;;;4246481;27;20083;-83
2022/08/03 00:07:53;;;;;;;5.05;1.10;;;20.50;99.90;;;;;;4247005;27;20157;-83
2022/08/03 00:09:53;;;;;;;6.35;1.23;;;20.40;99.90;;;;;;4234434;27;20059;-83
2022/08/03 00:11:54;;;;;;;5.90;1.52;;;20.40;99.90;;;;;;4230077;28;20043;-83
2022/08/03 00:13:55;;;;;;;5.82;1.42;;;20.40;99.90;;;;;;4230189;28;20059;-83
2022/08/03 00:15:56;;;;;;;7.97;1.30;;;20.40;99.90;;;;;;4230336;28;20054;-83
2022/08/03 00:17:56;;;;;;;8.93;1.65;;;20.60;99.90;;;;;;4229650;28;20484;-83
2022/08/03 00:19:57;;;;;;;6.13;1.60;;;20.30;99.90;;;;;;4248627;28;20046;-83
2022/08/03 00:21:58;;;;;;;4.43;1.30;;;20.30;99.90;;;;;;4248390;28;20046;-83
2022/08/03 00:23:59;;;;;;;4.22;1.00;;;20.30;99.90;;;;;;4261102;27;20169;-83
2022/08/03 00:26:00;;;;;;;5.38;1.00;;;20.30;99.90;;;;;;4251464;27;20075;-83
2022/08/03 00:28:04;;;;;;;6.75;1.80;;;20.30;99.90;;;;;;4246217;28;20050;-83
2022/08/03 00:30:07;;;;;;;6.32;1.65;;;20.20;99.90;;;;;;4229215;28;20063;-83
2022/08/03 00:32:08;;;;;;;5.30;1.05;;;20.20;99.90;;;;;;4247760;28;20039;-83
2022/08/03 00:34:09;;;;;;;5.72;1.10;;;20.20;99.90;;;;;;4247827;28;20071;-83
2022/08/03 00:36:09;;;;;;;4.65;1.45;;;20.20;99.90;;;;;;4246323;28;20078;-83
2022/08/03 00:38:10;;;;;;;9.63;1.48;;;20.20;99.90;;;;;;4261145;27;20042;-83
2022/08/03 00:40:13;;;;;;;6.43;1.70;;;20.10;99.90;;;;;;4264204;27;20053;-83
2022/08/03 00:42:14;;;;;;;6.68;1.35;;;20.10;99.90;;;;;;4246522;28;20051;-83
2022/08/03 00:44:14;;;;;;;7.57;1.50;;;20.10;99.90;;;;;;4246193;27;20132;-83
2022/08/03 00:46:15;;;;;;;4.15;1.42;;;20.10;99.90;;;;;;4246311;28;20503;-83
2022/08/03 00:48:17;;;;;;;4.35;1.30;;;20.10;99.90;;;;;;4228826;28;20040;-83
2022/08/03 00:50:21;;;;;;;5.43;1.10;;;20.00;99.90;;;;;;4246205;28;20510;-83
2022/08/03 00:52:22;;;;;;;4.15;1.10;;;20.00;99.90;;;;;;4249890;27;20043;-83
2022/08/03 00:54:24;;;;;;;6.78;1.58;;;20.00;99.90;;;;;;4249717;27;20058;-83
2022/08/03 00:56:25;;;;;;;5.88;2.60;;;20.00;99.90;;;;;;4250625;27;20467;-83
2022/08/03 00:58:26;;;;;;;7.95;1.73;;;20.00;99.90;;;;;;4263399;27;20043;-83
2022/08/03 01:00:27;;;;;;;10.20;1.77;;;20.00;99.90;;;;;;4236257;27;20052;-83
2022/08/03 01:02:28;;;;;;;7.75;1.30;;;20.00;99.90;;;;;;4250680;27;20554;-83
2022/08/03 01:04:29;;;;;;;12.02;1.65;;;20.00;99.90;;;;;;4249417;27;20043;-82
2022/08/03 01:06:44;;;;;;;4.03;1.20;;;20.00;99.90;;;;;;4256850;27;20122;-82
2022/08/03 01:08:47;;;;;;;4.70;1.17;;;20.00;99.90;;;;;;4268160;27;20045;-82
2022/08/03 01:11:16;;;;;;;7.47;1.25;;;20.00;99.90;;;;;;4268061;27;20044;-82
2022/08/03 01:13:23;;;;;;;5.00;1.45;;;19.90;99.90;;;;;;4268032;27;20162;-82
2022/08/03 01:15:53;;;;;;;5.22;1.45;;;19.90;99.90;;;;;;4249594;27;20051;-82
2022/08/03 01:17:59;;;;;;;6.03;1.83;;;19.90;99.90;;;;;;4254137;27;20059;-82
2022/08/03 01:20:06;;;;;;;6.35;1.95;;;19.90;99.90;;;;;;4235281;27;20051;-82
2022/08/03 01:22:16;;;;;;;7.32;1.65;;;19.90;99.90;;;;;;4232471;28;20054;-83
2022/08/03 01:24:23;;;;;;;5.68;2.38;;;19.80;99.90;;;;;;4250325;27;20047;-82
2022/08/03 01:26:36;;;;;;;6.93;1.27;;;19.90;99.90;;;;;;4232238;28;20055;-83
2022/08/03 01:29:01;;;;;;;4.82;2.05;;;19.80;99.90;;;;;;4250718;27;20469;-82
2022/08/03 01:31:07;;;;;;;2.72;0.90;;;19.80;99.90;;;;;;4232068;28;20756;-82
2022/08/03 01:33:24;;;;;;;9.07;1.02;;;19.80;99.90;;;;;;4238150;27;20096;-83
2022/08/03 01:35:46;;;;;;;5.03;1.77;;;19.80;99.90;;;;;;4267704;27;20118;-82
2022/08/03 01:37:59;;;;;;;6.28;1.15;;;19.80;99.90;;;;;;4249255;27;20491;-84
2022/08/03 01:40:02;;;;;;;5.95;1.02;;;19.80;99.90;;;;;;4267760;27;20053;-83
2022/08/03 01:42:06;;;;;;;8.30;1.30;;;19.80;99.90;;;;;;4248605;27;20047;-83
2022/08/03 01:44:10;;;;;;;6.45;1.00;;;19.80;99.90;;;;;;4267291;27;20088;-83
2022/08/03 01:46:11;;;;;;;5.68;1.20;;;19.70;99.90;;;;;;4248996;27;20130;-83
2022/08/03 01:48:17;;;;;;;5.10;1.08;;;19.70;99.90;;;;;;4232955;27;20089;-83
2022/08/03 01:50:25;;;;;;;7.65;1.17;;;19.70;99.90;;;;;;4232083;28;20051;-83
2022/08/03 01:52:27;;;;;;;6.50;1.00;;;19.70;99.90;;;;;;4250471;27;20047;-83
2022/08/03 01:54:29;;;;;;;8.43;1.73;;;19.80;99.90;;;;;;4250469;27;20069;-83
2022/08/03 01:56:31;;;;;;;3.58;0.95;;;19.70;99.90;;;;;;4248448;27;20057;-83
2022/08/03 01:58:35;;;;;;;6.03;1.75;;;19.70;99.90;;;;;;4249049;27;20039;-83
2022/08/03 02:00:37;;;;;;;8.77;1.63;;;19.70;99.90;;;;;;4246906;27;20043;-83
2022/08/03 02:02:39;;;;;;;6.95;1.00;;;19.70;99.90;;;;;;4231913;27;20149;-83
2022/08/03 02:04:42;;;;;;;9.60;1.30;;;19.60;99.90;;;;;;4249401;27;20102;-82
2022/08/03 02:06:46;;;;;;;5.28;1.48;;;19.70;99.90;;;;;;4250473;27;20517;-83
2022/08/03 02:08:51;;;;;;;5.95;0.93;;;19.60;99.90;;;;;;4232062;28;20043;-83
2022/08/03 02:10:56;;;;;;;8.32;1.42;;;19.60;99.90;;;;;;4215355;28;20056;-83
2022/08/03 02:12:59;;;;;;;4.65;1.13;;;19.60;99.90;;;;;;4215153;28;20126;-83
2022/08/03 02:15:01;;;;;;;4.20;1.20;;;19.60;99.90;;;;;;4255035;27;20042;-83
2022/08/03 02:17:03;;;;;;;2.40;0.98;;;19.60;99.90;;;;;;4266884;27;20398;-82
2022/08/03 02:19:06;;;;;;;4.50;1.10;;;19.60;99.90;;;;;;4267321;27;20057;-83
2022/08/03 02:21:09;;;;;;;8.48;0.90;;;19.60;99.90;;;;;;4267021;27;20077;-83
2022/08/03 02:23:10;;;;;;;10.27;1.20;;;19.60;99.90;;;;;;4267429;27;20045;-83
2022/08/03 02:25:12;;;;;;;6.90;1.10;;;19.50;99.90;;;;;;4267346;27;20039;-83
2022/08/03 02:27:22;;;;;;;5.25;0.95;;;19.60;99.90;;;;;;4266764;27;20217;-83
2022/08/03 02:29:26;;;;;;;9.20;1.83;;;19.50;99.90;;;;;;4239993;27;20089;-82
2022/08/03 02:31:32;;;;;;;6.68;1.30;;;19.50;99.90;;;;;;4214683;28;20075;-82
2022/08/03 02:33:37;;;;;;;8.15;1.25;;;19.50;99.90;;;;;;4249753;27;20051;-82
2022/08/03 02:35:39;;;;;;;6.45;1.20;;;19.40;99.90;;;;;;4249866;27;20114;-83
2022/08/03 02:37:45;;;;;;;2.75;0.93;;;19.50;99.90;;;;;;4231489;28;20126;-83
2022/08/03 02:39:48;;;;;;;9.20;2.00;;;19.50;99.90;;;;;;4230822;28;20407;-82
2022/08/03 02:41:54;;;;;;;7.32;1.55;;;19.40;99.90;;;;;;4249576;27;20126;-82
2022/08/03 02:43:56;;;;;;;4.43;1.00;;;19.40;99.90;;;;;;4231625;27;20051;-83
2022/08/03 02:46:00;;;;;;;3.53;1.02;;;19.40;99.90;;;;;;4249864;27;20055;-83
2022/08/03 02:48:04;;;;;;;3.80;0.98;;;19.40;99.90;;;;;;4249070;27;20053;-83
2022/08/03 02:50:07;;;;;;;4.43;1.70;;;19.40;99.90;;;;;;4231884;28;20142;-82
2022/08/03 02:52:12;;;;;;;4.95;0.90;;;19.40;99.90;;;;;;4231219;28;20127;-82
2022/08/03 02:54:18;;;;;;;4.28;1.23;;;19.40;99.90;;;;;;4231797;28;20051;-83
2022/08/03 02:56:21;;;;;;;6.75;1.30;;;19.30;99.90;;;;;;4250203;27;20057;-83
2022/08/03 02:58:23;;;;;;;9.30;1.95;;;19.30;99.90;;;;;;4251442;27;20118;-82
2022/08/03 03:00:25;;;;;;;6.80;1.38;;;19.30;99.90;;;;;;4230937;28;20419;-83
2022/08/03 03:02:27;;;;;;;5.63;1.67;;;19.30;99.90;;;;;;4249666;27;20515;-82
2022/08/03 03:04:29;;;;;;;5.80;1.27;;;19.20;99.90;;;;;;4249952;27;20043;-83
2022/08/03 03:06:31;;;;;;;7.18;1.15;;;19.20;99.90;;;;;;4248245;27;20516;-82
2022/08/03 03:08:32;;;;;;;6.68;1.00;;;19.30;99.90;;;;;;4266999;27;20111;-83
2022/08/03 03:10:33;;;;;;;9.77;1.33;;;19.20;99.90;;;;;;4267783;27;20521;-82
2022/08/03 03:12:37;;;;;;;6.22;1.40;;;19.20;99.90;;;;;;4267141;27;20042;-81
2022/08/03 03:14:38;;;;;;;6.13;1.08;;;19.20;99.90;;;;;;4249195;27;20581;-82
2022/08/03 03:16:40;;;;;;;4.97;1.50;;;19.20;99.90;;;;;;4268951;27;20045;-82
2022/08/03 03:18:44;;;;;;;4.93;1.15;;;19.20;99.90;;;;;;4281432;27;20054;-82
2022/08/03 03:20:46;;;;;;;9.30;1.98;;;19.10;99.90;;;;;;4281245;27;20081;-84
2022/08/03 03:22:51;;;;;;;7.75;2.13;;;19.10;99.90;;;;;;4280997;27;20037;-82
2022/08/03 03:24:53;;;;;;;5.15;1.50;;;19.10;99.90;;;;;;4282301;27;20043;-83
2022/08/03 03:26:56;;;;;;;7.38;1.20;;;19.10;99.90;;;;;;4262189;27;20043;-82
2022/08/03 03:28:57;;;;;;;6.72;1.90;;;19.10;99.90;;;;;;4280798;27;20379;-83
2022/08/03 03:30:59;;;;;;;8.27;1.45;;;19.10;99.90;;;;;;4262560;27;20047;-82
2022/08/03 03:33:01;;;;;;;3.92;1.67;;;19.10;99.90;;;;;;4276133;27;20057;-83
2022/08/03 03:35:04;;;;;;;8.55;1.25;;;19.00;99.90;;;;;;4265666;27;20066;-82
2022/08/03 03:37:05;;;;;;;9.90;1.30;;;19.10;99.90;;;;;;4247085;27;20500;-82
2022/08/03 03:39:06;;;;;;;3.58;1.30;;;19.00;99.90;;;;;;4247115;27;20058;-82
2022/08/03 03:41:06;;;;;;;7.57;1.20;;;19.00;99.90;;;;;;4265745;27;20047;-83
2022/08/03 03:43:11;;;;;;;6.63;1.23;;;19.00;99.90;;;;;;4265583;27;20074;-82
2022/08/03 03:45:12;;;;;;;10.07;1.45;;;19.00;99.90;;;;;;4243227;27;20043;-83
2022/08/03 03:47:13;;;;;;;8.68;1.80;;;19.00;99.90;;;;;;4248282;27;20089;-82
2022/08/03 03:49:13;;;;;;;8.02;1.90;;;19.00;99.90;;;;;;4229897;28;20063;-83
2022/08/03 03:51:15;;;;;;;3.47;0.98;;;19.00;99.90;;;;;;4238279;27;20042;-82
2022/08/03 03:53:19;;;;;;;3.92;1.25;;;18.90;99.90;;;;;;4265328;27;20409;-83
2022/08/03 03:55:20;;;;;;;11.23;1.52;;;18.90;99.90;;;;;;4260781;27;20108;-83
2022/08/03 03:57:20;;;;;;;5.47;1.63;;;18.90;99.90;;;;;;4247843;27;20039;-83
2022/08/03 03:59:21;;;;;;;5.85;1.50;;;18.90;99.90;;;;;;4248275;27;20031;-83
2022/08/03 04:01:22;;;;;;;5.90;1.10;;;18.90;99.90;;;;;;4248111;27;20043;-84
2022/08/03 04:03:22;;;;;;;6.10;0.93;;;18.90;99.90;;;;;;4247277;27;20055;-83
2022/08/03 04:12:43;;;;;;;5.45;1.13;;;18.80;99.90;;;;;;4247935;27;20047;-83
2022/08/03 04:14:47;;;;;;;7.38;1.50;;;18.80;99.90;;;;;;4259942;27;20046;-82
2022/08/03 04:16:52;;;;;;;7.97;1.33;;;18.80;99.90;;;;;;4246731;27;20055;-83
2022/08/03 04:18:56;;;;;;;9.95;1.55;;;18.80;99.90;;;;;;4245817;27;20446;-82
2022/08/03 04:21:03;;;;;;;5.70;1.33;;;18.80;99.90;;;;;;4246715;28;20051;-82
2022/08/03 04:23:05;;;;;;;10.20;1.95;;;18.70;99.90;;;;;;4246006;28;20047;-82
2022/08/03 04:25:09;;;;;;;7.15;1.67;;;18.80;99.90;;;;;;4264988;27;20436;-83
2022/08/03 04:27:13;;;;;;;6.50;2.33;;;18.80;99.90;;;;;;4266178;27;20043;-82
2022/08/03 04:29:14;;;;;;;5.80;1.70;;;18.80;99.90;;;;;;4250354;27;20047;-82
2022/08/03 04:31:17;;;;;;;8.20;1.92;;;18.80;99.90;;;;;;4250172;27;20039;-82
2022/08/03 04:33:19;;;;;;;16.50;3.28;;;18.80;99.90;;;;;;4266202;27;20050;-82
2022/08/03 04:35:20;;;;;;;6.53;1.90;;;18.80;99.90;;;;;;4250118;27;20055;-82
2022/08/03 04:37:34;;;;;;;7.70;1.98;;;18.80;99.90;;;;;;4268457;27;20074;-82
2022/08/03 04:39:37;;;;;;;11.50;1.80;;;18.90;99.90;;;;;;4268042;27;20039;-82
2022/08/03 04:41:43;;;;;;;11.00;2.67;;;18.80;99.90;;;;;;4267191;27;20046;-82
2022/08/03 04:43:44;;;;;;;9.45;1.60;;;18.80;99.90;;;;;;4249613;27;20047;-82
2022/08/03 04:45:47;;;;;;;5.35;1.50;;;18.80;99.90;;;;;;4267756;27;20050;-82
2022/08/03 04:47:49;;;;;;;6.95;1.50;;;18.80;99.90;;;;;;4266216;27;20043;-82
2022/08/03 04:49:50;;;;;;;6.13;1.73;;;18.90;99.90;;;;;;4268321;27;20114;-82
2022/08/03 04:51:52;;;;;;;4.20;1.52;;;18.80;99.90;;;;;;4264322;27;20046;-82
2022/08/03 04:53:52;;;;;;;7.38;1.98;;;18.80;99.90;;;;;;4251073;27;20047;-82
2022/08/03 04:55:53;;;;;;;8.30;1.88;;;18.90;99.90;;;;;;4251323;27;20051;-82
2022/08/03 04:57:54;;;;;;;10.15;2.17;;;18.90;99.90;;;;;;4232567;28;20181;-82
2022/08/03 04:59:55;;;;;;;5.88;1.63;;;18.90;99.90;;;;;;4250682;27;20084;-82
2022/08/03 05:01:56;;;;;;;7.85;1.63;;;18.90;99.90;;;;;;4257107;27;20478;-82
2022/08/03 05:03:56;;;;;;;7.13;2.13;;;18.90;99.90;;;;;;4267538;27;20108;-82
2022/08/03 05:05:57;;;;;;;7.97;1.60;;;19.00;99.90;;;;;;4268086;27;20089;-82
2022/08/03 05:07:58;;;;;;;6.70;2.20;;;19.00;99.90;;;;;;4249675;27;20049;-83
2022/08/03 05:09:58;;;;;;;9.73;2.40;;;19.00;99.90;;;;;;4249685;27;20051;-82
2022/08/03 05:12:00;;;;;;;7.47;1.50;;;19.00;99.90;;;;;;4249719;27;20050;-82
2022/08/03 05:14:01;;;;;;;9.82;1.92;;;19.00;99.90;;;;;;4249133;27;20042;-82
2022/08/03 05:16:02;;;;;;;5.82;1.88;;;19.00;99.90;;;;;;4249124;27;20047;-82
2022/08/03 05:18:02;;;;;;;11.40;1.45;;;19.10;99.90;;;;;;4267453;27;20049;-82
2022/08/03 05:20:04;;;;;;;13.88;2.33;;;19.10;99.90;;;;;;4267719;27;20046;-82
2022/08/03 05:22:04;;;;;;;8.07;2.03;;;19.10;99.90;;;;;;4263152;27;20114;-82
2022/08/03 05:24:05;;;;;;;11.50;2.30;;;19.10;99.90;;;;;;4250505;27;20043;-83
2022/08/03 05:26:06;;;;;;;10.73;2.42;;;19.20;99.90;;;;;;4231880;28;20086;-82
2022/08/03 05:28:07;;;;;;;7.80;2.20;;;19.20;99.90;;;;;;4232121;28;20491;-82
2022/08/03 05:30:08;;;;;;;5.43;1.40;;;19.20;99.90;;;;;;4250140;27;20035;-83
2022/08/03 05:32:09;;;;;;;9.20;2.17;;;19.20;99.90;;;;;;4253777;27;20046;-83
2022/08/03 05:34:10;;;;;;;5.10;1.73;;;19.40;99.90;;;;;;4267437;27;20039;-82
2022/08/03 05:36:11;;;;;;;11.45;1.70;;;19.40;99.90;;;;;;4267046;27;20265;-82
2022/08/03 05:38:12;;;;;;;6.95;1.75;;;19.40;99.90;;;;;;4267168;27;20038;-83
2022/08/03 05:40:13;;;;;;;6.60;1.52;;;19.50;99.90;;;;;;4266929;27;20562;-83
2022/08/03 05:42:15;;;;;;;8.82;1.60;;;19.50;99.90;;;;;;4267399;27;20086;-83
2022/08/03 05:44:16;;;;;;;5.70;2.03;;;19.60;99.90;;;;;;4267003;27;20050;-83
2022/08/03 05:46:16;;;;;;;7.25;2.25;;;19.60;99.90;;;;;;4267353;27;20486;-83
2022/08/03 05:48:17;;;;;;;6.53;1.58;;;19.70;99.90;;;;;;4237632;27;20502;-82
2022/08/03 05:50:20;;;;;;;5.60;1.77;;;19.70;99.90;;;;;;4231550;28;20047;-83
2022/08/03 05:52:21;;;;;;;5.75;1.40;;;19.70;99.90;;;;;;4249855;27;20054;-83
2022/08/03 05:54:21;;;;;;;9.60;2.70;;;19.80;99.90;;;;;;4231822;28;20051;-83
2022/08/03 05:56:24;;;;;;;9.43;1.85;;;19.80;99.90;;;;;;4230975;28;20455;-83
2022/08/03 05:58:24;;;;;;;10.00;1.75;;;19.80;99.90;;;;;;4249847;27;20107;-83
2022/08/03 06:00:25;;;;;;;13.90;3.00;;;19.90;99.90;;;;;;4249965;27;20402;-84
2022/08/03 06:02:26;;;;;;;5.28;1.65;;;19.90;99.90;;;;;;4231662;28;20047;-83
2022/08/03 06:04:27;;;;;;;8.15;2.50;;;20.00;99.90;;;;;;4231109;28;20097;-83
2022/08/03 06:06:28;;;;;;;13.45;1.77;;;20.00;99.90;;;;;;4249705;27;20035;-83
2022/08/03 06:08:29;;;;;;;3.03;1.20;;;20.10;99.90;;;;;;4241349;27;20039;-83
2022/08/03 06:10:29;;;;;;;7.43;1.75;;;20.10;99.90;;;;;;4248665;27;20047;-83
2022/08/03 06:12:30;;;;;;;7.03;1.45;;;20.20;99.90;;;;;;4267418;27;20033;-83
2022/08/03 06:14:31;;;;;;;10.10;1.98;;;20.20;99.90;;;;;;4248167;27;20095;-83
2022/08/03 06:16:32;;;;;;;9.00;1.83;;;20.30;99.90;;;;;;4266638;27;20436;-83
2022/08/03 06:18:33;;;;;;;6.40;2.08;;;20.30;99.90;;;;;;4248251;27;20166;-83
2022/08/03 06:20:34;;;;;;;10.63;1.70;;;20.30;99.90;;;;;;4266510;27;20046;-83
2022/08/03 06:22:35;;;;;;;5.85;1.80;;;20.40;99.90;;;;;;4248173;27;20455;-83
2022/08/03 06:24:36;;;;;;;13.85;2.58;;;20.40;99.90;;;;;;4230412;28;20050;-83
2022/08/03 06:26:37;;;;;;;9.48;2.10;;;20.40;99.90;;;;;;4249253;27;20503;-83
2022/08/03 06:28:37;;;;;;;11.93;2.22;;;20.50;99.90;;;;;;4248168;27;20051;-83
2022/08/03 06:30:39;;;;;;;4.50;2.10;;;20.50;99.90;;;;;;4214499;28;20047;-83
2022/08/03 06:32:40;;;;;;;8.38;1.73;;;20.60;99.90;;;;;;4231068;28;20124;-83
2022/08/03 06:34:40;;;;;;;14.55;1.85;;;20.60;99.90;;;;;;4231632;27;20051;-83
2022/08/03 06:36:41;;;;;;;17.13;1.98;;;20.70;99.90;;;;;;4230868;28;20130;-83
2022/08/03 06:38:42;;;;;;;16.88;2.80;;;20.70;99.90;;;;;;4230987;28;20079;-83
2022/08/03 06:40:43;;;;;;;10.95;1.85;;;20.80;99.90;;;;;;4249582;27;20482;-83
2022/08/03 06:42:44;;;;;;;8.35;1.88;;;20.80;99.90;;;;;;4249542;27;20046;-84
2022/08/03 06:44:44;;;;;;;8.70;2.17;;;21.00;99.90;;;;;;4259258;27;20118;-83
2022/08/03 06:46:46;;;;;;;8.77;2.28;;;21.00;99.90;;;;;;4247705;27;20051;-83
2022/08/03 06:48:47;;;;;;;11.75;2.75;;;21.10;99.90;;;;;;4266249;27;20084;-83
2022/08/03 06:50:49;;;;;;;8.00;2.20;;;21.20;99.90;;;;;;4265661;27;20042;-83
2022/08/03 06:52:49;;;;;;;10.70;2.45;;;21.30;99.90;;;;;;4267005;27;20086;-83
2022/08/03 06:54:51;;;;;;;10.55;1.75;;;21.30;99.90;;;;;;4248041;27;20563;-83
2022/08/03 06:56:52;;;;;;;14.63;3.20;;;21.40;99.90;;;;;;4266631;27;20046;-84
2022/08/03 06:58:53;;;;;;;7.00;2.50;;;21.50;99.90;;;;;;4265695;27;20416;-83
2022/08/03 07:00:53;;;;;;;8.38;2.30;;;21.60;99.90;;;;;;4266066;27;20042;-84
2022/08/03 07:02:54;;;;;;;8.82;2.33;;;21.60;99.90;;;;;;4234112;27;20507;-83
2022/08/03 07:04:55;;;;;;;13.20;2.67;;;21.60;99.90;;;;;;4230696;28;20046;-83
2022/08/03 07:06:57;;;;;;;6.85;1.50;;;21.70;99.90;;;;;;4230896;28;20044;-83
2022/08/03 07:08:58;;;;;;;7.78;2.10;;;21.80;99.90;;;;;;4249171;27;20043;-83
2022/08/03 07:10:59;;;;;;;4.80;2.00;;;21.80;99.90;;;;;;4230365;28;20146;-83
2022/08/03 07:13:00;;;;;;;12.38;2.25;;;21.90;99.90;;;;;;4249102;27;20039;-82
2022/08/03 07:15:03;;;;;;;10.75;2.95;;;21.90;99.90;;;;;;4249167;27;20471;-83
2022/08/03 07:17:04;;;;;;;11.88;2.33;;;22.00;99.90;;;;;;4248738;27;20130;-83
2022/08/03 07:19:04;;;;;;;10.43;1.63;;;22.10;99.90;;;;;;4230419;28;20435;-83
2022/08/03 07:21:06;;;;;;;10.27;2.95;;;22.10;99.90;;;;;;4213485;28;20052;-83
2022/08/03 07:23:08;;;;;;;7.85;1.83;;;22.20;99.90;;;;;;4230350;28;20075;-83
2022/08/03 07:25:10;;;;;;;12.20;1.90;;;22.30;99.90;;;;;;4248787;27;20826;-83
2022/08/03 07:27:11;;;;;;;7.57;2.00;;;22.40;99.90;;;;;;4248380;27;20050;-83
2022/08/03 07:29:12;;;;;;;8.40;1.55;;;22.40;99.90;;;;;;4248823;27;20394;-83
2022/08/03 07:31:12;;;;;;;10.02;1.75;;;22.50;99.90;;;;;;4248794;27;20053;-83
2022/08/03 07:33:14;;;;;;;9.07;1.92;;;22.60;99.90;;;;;;4229936;28;20047;-83
2022/08/03 07:35:14;;;;;;;8.90;1.98;;;22.70;99.90;;;;;;4248484;27;20093;-83
2022/08/03 07:37:15;;;;;;;10.52;2.22;;;22.70;99.90;;;;;;4230526;28;20489;-83
2022/08/03 07:39:16;;;;;;;11.40;2.00;;;22.70;99.90;;;;;;4231251;28;20075;-84
2022/08/03 07:41:17;;;;;;;10.55;2.17;;;22.80;99.90;;;;;;4266023;27;20048;-82
2022/08/03 07:43:18;;;;;;;7.82;1.80;;;22.90;99.90;;;;;;4265620;27;20094;-82
2022/08/03 07:45:20;;;;;;;8.18;1.75;;;23.00;99.90;;;;;;4247239;27;20163;-82
2022/08/03 07:47:28;;;;;;;10.88;2.17;;;23.10;99.90;;;;;;4247028;27;20051;-83
2022/08/03 07:49:29;;;;;;;10.07;2.93;;;23.20;99.90;;;;;;4230785;27;20043;-83
2022/08/03 07:51:30;;;;;;;9.45;1.67;;;23.20;99.90;;;;;;4247102;27;20057;-83
2022/08/03 07:53:31;;;;;;;6.97;1.73;;;23.20;99.90;;;;;;4247954;27;20464;-83
2022/08/03 07:55:31;;;;;;;8.20;1.77;;;23.30;99.90;;;;;;4245653;27;20039;-83
2022/08/03 07:57:33;;;;;;;6.03;1.90;;;23.30;99.90;;;;;;4229680;28;20517;-83
2022/08/03 07:59:34;;;;;;;14.85;2.33;;;23.40;99.90;;;;;;4231322;28;20543;-83
2022/08/03 08:01:36;;;;;;;9.98;1.95;;;23.40;99.90;;;;;;4228983;28;20083;-83
2022/08/03 08:03:37;;;;;;;12.60;2.17;;;23.60;99.90;;;;;;4229721;28;20400;-82
2022/08/03 08:05:39;;;;;;;10.82;2.50;;;23.60;99.90;;;;;;4232086;27;20113;-83
2022/08/03 08:07:40;;;;;;;8.80;1.83;;;23.60;99.90;;;;;;4248477;27;20035;-83
2022/08/03 08:09:41;;;;;;;6.80;1.90;;;23.60;99.90;;;;;;4247186;27;20043;-82
2022/08/03 08:11:45;;;;;;;12.20;1.85;;;23.60;99.90;;;;;;4248619;27;20403;-83
2022/08/03 08:13:46;;;;;;;11.48;2.08;;;23.70;99.90;;;;;;4248293;27;20099;-83
2022/08/03 08:15:46;;;;;;;11.00;2.28;;;23.80;99.90;;;;;;4248636;27;20118;-82
2022/08/03 08:17:52;;;;;;;13.07;2.75;;;23.90;99.90;;;;;;4247604;27;20050;-82
2022/08/03 08:19:53;;;;;;;12.68;2.83;;;24.00;99.90;;;;;;4247146;27;20130;-83
2022/08/03 08:21:54;;;;;;;8.52;1.88;;;24.20;99.90;;;;;;4247228;28;20426;-82
2022/08/03 08:23:55;;;;;;;8.13;1.95;;;24.30;99.90;;;;;;4248089;28;20050;-82
2022/08/03 08:25:55;;;;;;;10.63;2.63;;;24.50;99.90;;;;;;4232099;28;20051;-83
2022/08/03 08:27:56;;;;;;;7.45;1.70;;;24.50;99.90;;;;;;4230794;28;20043;-83
2022/08/03 08:29:57;;;;;;;9.10;2.17;;;24.60;99.90;;;;;;4230578;28;20047;-82
2022/08/03 08:31:58;;;;;;;10.45;2.22;;;24.90;99.90;;;;;;4230033;28;20039;-83
2022/08/03 08:34:04;;;;;;;8.48;2.00;;;25.00;99.90;;;;;;4246376;28;20050;-82
2022/08/03 08:36:05;;;;;;;5.20;1.80;;;25.10;99.90;;;;;;4247952;27;20110;-82
2022/08/03 08:38:05;;;;;;;8.85;2.60;;;25.30;99.90;;;;;;4246012;28;20088;-83
2022/08/03 08:40:08;;;;;;;6.80;2.00;;;25.40;99.70;;;;;;4247746;28;20126;-83
2022/08/03 08:42:09;;;;;;;11.35;1.92;;;25.40;99.40;;;;;;4229521;28;20082;-83
2022/08/03 08:44:10;;;;;;;9.88;2.30;;;25.40;99.10;;;;;;4249260;27;20035;-83
2022/08/03 08:46:12;;;;;;;14.70;2.20;;;25.50;99.10;;;;;;4244447;28;20521;-83
2022/08/03 08:48:13;;;;;;;8.15;1.85;;;25.60;99.00;;;;;;4229334;28;20055;-83
2022/08/03 08:50:21;;;;;;;13.82;2.70;;;25.60;98.80;;;;;;4229440;28;20190;-83
2022/08/03 08:52:24;;;;;;;8.35;1.70;;;25.60;98.20;;;;;;4229172;28;20046;-83
2022/08/03 08:54:26;;;;;;;15.85;2.40;;;25.50;98.50;;;;;;4229571;28;20094;-82
2022/08/03 08:56:27;;;;;;;12.05;1.73;;;25.50;98.60;;;;;;4247843;28;20047;-83
2022/08/03 08:58:37;;;;;;;10.98;2.28;;;25.50;98.50;;;;;;4247580;28;20114;-82
2022/08/03 09:00:38;;;;;;;10.88;2.42;;;25.60;98.40;;;;;;4247259;28;20051;-82
2022/08/03 09:02:41;;;;;;;10.32;1.92;;;25.80;98.40;;;;;;4252418;27;20436;-82
2022/08/03 09:04:47;;;;;;;14.43;2.50;;;26.00;98.20;;;;;;4264415;27;20094;-83
2022/08/03 09:06:48;;;;;;;14.88;3.85;;;26.00;97.80;;;;;;4246035;28;20530;-82
2022/08/03 09:08:49;;;;;;;11.57;2.42;;;25.90;97.50;;;;;;4264788;27;20043;-82
2022/08/03 09:10:50;;;;;;;8.98;2.15;;;25.70;97.50;;;;;;4264953;27;20046;-83
2022/08/03 09:12:51;;;;;;;7.47;2.10;;;25.70;97.50;;;;;;4265547;27;20047;-82
2022/08/03 09:14:53;;;;;;;11.57;2.25;;;25.70;97.30;;;;;;4267579;27;20514;-82
2022/08/03 09:16:59;;;;;;;7.63;2.03;;;25.80;97.30;;;;;;4260226;27;20043;-82
2022/08/03 09:19:15;;;;;;;12.55;3.58;;;25.90;97.30;;;;;;4250601;27;20039;-83
2022/08/03 09:21:19;;;;;;;8.00;1.80;;;26.20;97.20;;;;;;4250817;27;20487;-83
2022/08/03 09:23:20;;;;;;;11.65;2.40;;;26.30;97.00;;;;;;4215307;28;20551;-83
2022/08/03 09:25:35;;;;;;;7.93;2.45;;;26.30;96.90;;;;;;4250400;27;20039;-83
2022/08/03 09:27:44;;;;;;;9.27;2.03;;;26.50;96.70;;;;;;4250315;27;20051;-83
2022/08/03 09:29:49;;;;;;;;;;;26.60;95.90;;;;;;4251035;27;20050;-83
2022/08/03 09:32:00;;;;;;;5.32;2.13;;;26.70;95.10;;;;;;4265549;27;19919;-83
2022/08/03 09:34:09;;;;;;;6.60;1.65;;;26.90;95.80;;;;;;4267014;27;20050;-83
2022/08/03 09:36:30;;;;;;;;;;;27.00;95.70;;;;;;4250388;27;20118;-83
2022/08/03 09:38:30;;;;;;;9.57;2.47;;;27.10;94.30;;;;;;4267986;27;19933;-82
2022/08/03 09:40:35;;;;;;;8.13;2.42;;;27.00;95.50;;;;;;4267353;27;20047;-83
2022/08/03 09:42:38;;;;;;;7.82;1.58;;;26.90;94.90;;;;;;4247619;27;20566;-83
2022/08/03 09:44:47;;;;;;;7.50;2.28;;;26.90;95.20;;;;;;4250023;27;20418;-83
2022/08/03 09:46:51;;;;;;;12.20;3.20;;;27.00;95.20;;;;;;4232115;28;20136;-83
2022/08/03 09:48:51;;;;;;;10.27;2.20;;;27.00;94.90;;;;;;4250350;27;20047;-82
2022/08/03 09:51:00;;;;;;;11.57;2.45;;;27.10;94.90;;;;;;4249970;27;20039;-83
2022/08/03 09:53:01;;;;;;;12.27;2.22;;;27.20;94.50;;;;;;4250403;27;20039;-83
2022/08/03 09:55:12;;;;;;;8.05;2.78;;;27.30;94.60;;;;;;4231634;28;20044;-83
2022/08/03 09:57:21;;;;;;;11.55;2.25;;;27.40;93.70;;;;;;4231934;28;20048;-83
2022/08/03 09:59:26;;;;;;;8.38;2.25;;;27.50;93.70;;;;;;4231691;28;20516;-82
2022/08/03 10:01:33;;;;;;;5.32;1.98;;;27.60;94.00;;;;;;4214323;28;20054;-83
2022/08/03 10:03:36;;;;;;;7.93;2.17;;;27.70;93.00;;;;;;4249970;27;20043;-83
2022/08/03 10:05:43;;;;;;;17.90;2.05;;;27.60;93.50;;;;;;4231775;28;20488;-82
2022/08/03 10:07:46;;;;;;;8.55;2.05;;;27.70;93.50;;;;;;4231598;28;20081;-83
2022/08/03 10:09:58;;;;;;;12.50;3.83;;;27.80;93.30;;;;;;4235065;27;20088;-82
2022/08/03 10:12:12;;;;;;;9.18;2.42;;;27.80;92.90;;;;;;4267523;27;20112;-83
2022/08/03 10:14:19;;;;;;;7.32;2.92;;;27.70;92.10;;;;;;4248353;27;20087;-83
2022/08/03 10:16:20;;;;;;;10.27;2.00;;;27.60;92.80;;;;;;4248743;27;20514;-83
2022/08/03 10:18:21;;;;;;;11.50;2.17;;;27.60;93.00;;;;;;4266870;27;20031;-83
2022/08/03 10:20:22;;;;;;;9.70;2.05;;;28.00;93.10;;;;;;4248576;27;20051;-82
2022/08/03 10:22:26;;;;;;;8.07;2.47;;;28.10;92.80;;;;;;4266952;27;20432;-83
2022/08/03 10:24:28;;;;;;;6.22;1.90;;;28.40;92.40;;;;;;4265387;27;20470;-83
2022/08/03 10:26:43;;;;;;;15.32;2.80;;;28.70;92.00;;;;;;4231481;28;20052;-84
2022/08/03 10:28:49;;;;;;;8.35;2.28;;;28.80;90.20;;;;;;4249905;27;20118;-83
2022/08/03 10:30:53;;;;;;;11.73;2.05;;;28.70;91.10;;;;;;4230799;28;20435;-83
2022/08/03 10:32:57;;;;;;;14.52;2.60;;;28.70;91.10;;;;;;4249802;27;20051;-83
2022/08/03 10:35:19;;;;;;;15.90;4.07;;;28.80;91.10;;;;;;4231447;28;20052;-83
2022/08/03 10:37:21;;;;;;;6.82;1.92;;;28.70;89.30;;;;;;4231255;28;20131;-83
2022/08/03 10:39:27;;;;;;;7.40;2.10;;;28.50;90.60;;;;;;4249823;27;20055;-83
2022/08/03 10:41:32;;;;;;;9.73;3.55;;;28.70;90.90;;;;;;4249620;27;20068;-82
2022/08/03 10:43:43;;;;;;;4.43;2.08;;;28.80;90.60;;;;;;4249564;27;20043;-82
2022/08/03 10:45:46;;;;;;;9.48;2.22;;;28.80;90.00;;;;;;4243329;27;20080;-83
2022/08/03 10:47:47;;;;;;;7.88;1.83;;;29.00;90.40;;;;;;4248951;27;20043;-83